Terminal Aerodrome Forecast
Issued by NWS Mt. Holly, NJ

Home | Current Version | Previous Version | Text Only | Print | Product List | Glossary On
Versions: 1 2 3 4 5 6 7 8 9 10 11 12 13 14 15 16 17 18 19 20 21
000
FTUS41 KPHI 081726
TAFILG
TAF
KILG 081726Z 0818/0918 27012G24KT P6SM FEW050 BKN080
     FM082300 29011KT P6SM SKC
     FM091200 30011G23KT P6SM FEW050 SCT100=

USA.gov is the U.S. government's official web portal to all federal, state and local government web resources and services.